Ellensburg, WA

1:58 AM PDT on October 20, 2014 (GMT -0700)
Central Washington University | Change Station
CLOSE
Current Station
Personal Weather Station
Location: Ellensburg, WA
Elevation: 1598 ft
Nearby Weather Stations

Elev 1598 ft 47.01 °N, 120.54 °W | Updated 10 minutes ago

Scattered Clouds
Scattered Clouds
45.2 °F
Feels Like 45 °F
N
2.0
Wind Variable Wind from West

Today
High -- | Low -- °F
--% Chance of Precip.
Yesterday
High -- | Low -- °F
Precip. -- in
7:27 AM 6:05 PM
Waning Crescent, 12% visible
Pressure 29.73 in
Visibility 10.0 miles
Clouds Scattered Clouds 9000 ft
Windchill 45 °F
Dew Point 43 °F
Humidity 92%
Rainfall 0.00 in
Snow Depth Not available.
UV 0.0 out of 12
Pollen 2.00 out of 12
Air Quality Not available.
Flu Activity Sporadic
METAR KELN 200853Z AUTO 34004KT 10SM SCT090 09/06 A2974 RMK AO2 SLP067 T00890061 55003

More Conditions Fewer Conditions

Pressure 29.73 in
Visibility 10.0 miles
Clouds Scattered Clouds 9000 ft
Windchill 45 °F
Dew Point 43 °F
Humidity 92%
Rainfall 0.00 in
Snow Depth Not available.
UV 0.0 out of 12
Pollen 2.00 out of 12
Air Quality Not available.
Flu Activity Sporadic
METAR KELN 200853Z AUTO 34004KT 10SM SCT090 09/06 A2974 RMK AO2 SLP067 T00890061 55003

More Conditions Fewer Conditions

10-Day Weather Forecast

Almanac

Astronomy

Oct. 20, 2014 Rise Set
Actual Time 7:27 AM PDT 6:05 PM PDT
Civil Twilight 6:56 AM PDT 6:36 PM PDT
Nautical Twilight 6:21 AM PDT 7:11 PM PDT
Astronomical Twilight 5:45 AM PDT 7:47 PM PDT
Moon 4:08 AM PDT 4:40 PM PDT
Length of Visible Light 11h 40m
Length of Day
10h 38m
Waning Crescent, 12% of the Moon is Illuminated
Today
Waning Crescent
Oct 23
New
Oct 30
First Quarter
Nov 6
Full
Nov 14
Last Quarter

Today's Extremes

State Highs State Lows

Community

WunderPhotos

Upload Photos

1,763,316 photos uploaded!

Nearby

Snow Depth

Station Depth Elevation
Grouse Camp 0 in 5380 ft
Trough 0 in 5300 ft
Blewett Pass 0 in 4270 ft
Green Lake 0 in 6000 ft
Morse Lake 0 in 5400 ft

Earthquake Activity

City Distance Mag. Time & Date
No recent earthquake activity has been reported nearby.
Minimum magnitude displayed is 2.5.

Coastal Water Temperatures

Place Temperature
No Stations Reporting

Nearby Weather Stations